createdAt,value
2017-11-20T00:02:11.765Z,10.75
2017-11-20T00:04:39.635Z,11.20
2017-11-20T00:07:08.218Z,9.70
2017-11-20T00:09:36.085Z,12.32
2017-11-20T00:12:03.955Z,13.93
2017-11-20T00:14:31.818Z,9.00
2017-11-20T00:16:59.687Z,7.35
2017-11-20T00:19:27.553Z,23.92
2017-11-20T00:21:55.421Z,13.55
2017-11-20T00:24:23.288Z,15.40
2017-11-20T00:26:51.156Z,7.18
2017-11-20T00:29:19.022Z,12.40
2017-11-20T00:31:46.890Z,15.65
2017-11-20T00:34:14.757Z,18.10
2017-11-20T00:36:42.624Z,14.30
2017-11-20T00:39:10.490Z,11.25
2017-11-20T00:41:38.361Z,13.93
2017-11-20T00:44:06.226Z,14.32
2017-11-20T00:46:34.094Z,10.50
2017-11-20T00:49:01.962Z,11.65
2017-11-20T00:51:29.829Z,11.48
2017-11-20T00:53:57.696Z,11.23
2017-11-20T00:56:25.563Z,12.68
2017-11-20T00:58:53.431Z,10.90
2017-11-20T01:01:21.308Z,10.75
2017-11-20T01:03:49.268Z,13.60
2017-11-20T01:06:17.135Z,13.35
2017-11-20T01:08:45.002Z,14.18
2017-11-20T01:11:12.869Z,12.07
2017-11-20T01:13:40.635Z,8.05
2017-11-20T01:16:08.510Z,22.75
2017-11-20T01:18:36.369Z,9.43
2017-11-20T01:21:04.235Z,13.02
2017-11-20T01:23:32.104Z,15.18
2017-11-20T01:25:59.971Z,10.18
2017-11-20T01:28:27.838Z,8.23
2017-11-20T01:30:55.705Z,11.82
2017-11-20T01:33:23.505Z,9.05
2017-11-20T01:35:52.054Z,13.23
2017-11-20T01:38:19.921Z,11.98
2017-11-20T01:40:47.725Z,17.02
2017-11-20T01:43:16.373Z,14.70
2017-11-20T01:45:44.241Z,7.72
2017-11-20T01:48:12.107Z,13.07
2017-11-20T01:50:39.976Z,8.95
2017-11-20T01:53:07.843Z,23.00
2017-11-20T01:55:35.710Z,13.10
2017-11-20T01:58:03.577Z,12.98
2017-11-20T02:00:31.444Z,12.35
2017-11-20T02:03:01.257Z,11.12
2017-11-20T02:05:29.125Z,13.35
2017-11-20T02:07:57.001Z,10.90
2017-11-20T02:10:24.859Z,15.13
2017-11-20T02:12:52.727Z,7.47
2017-11-20T02:15:20.594Z,10.85
2017-11-20T02:17:48.461Z,7.95
2017-11-20T02:20:16.333Z,9.30
2017-11-20T02:22:44.196Z,9.45
2017-11-20T02:25:12.064Z,15.50
2017-11-20T02:27:39.931Z,9.27
2017-11-20T02:30:07.798Z,13.20
2017-11-20T02:32:35.666Z,10.50
2017-11-20T02:35:03.541Z,11.70
2017-11-20T02:37:32.218Z,12.43
2017-11-20T02:40:00.086Z,16.92
2017-11-20T02:42:27.957Z,7.78
2017-11-20T02:44:55.822Z,12.82
2017-11-20T02:47:23.584Z,12.77
2017-11-20T02:49:51.467Z,13.05
2017-11-20T02:52:19.324Z,13.02
2017-11-20T02:54:47.189Z,12.32
2017-11-20T02:57:15.060Z,14.13
2017-11-20T02:59:42.927Z,14.18
2017-11-20T03:02:10.795Z,10.63
2017-11-20T03:04:38.659Z,11.38
2017-11-20T03:07:06.528Z,9.40
2017-11-20T03:09:34.392Z,9.05
2017-11-20T03:12:02.259Z,13.18
2017-11-20T03:14:30.127Z,12.02
2017-11-20T03:16:57.993Z,13.93
2017-11-20T03:19:25.861Z,8.13
2017-11-20T03:21:53.733Z,7.47
2017-11-20T03:24:21.596Z,15.35
2017-11-20T03:26:49.462Z,17.90
2017-11-20T03:29:17.332Z,12.48
2017-11-20T03:31:45.202Z,12.93
2017-11-20T03:34:13.065Z,12.52
2017-11-20T03:36:40.932Z,8.07
2017-11-20T03:39:08.799Z,10.90
2017-11-20T03:41:36.667Z,17.15
2017-11-20T03:44:04.534Z,11.23
2017-11-20T03:46:32.402Z,21.02
2017-11-20T03:49:00.269Z,8.95
2017-11-20T03:51:28.136Z,12.48
2017-11-20T03:53:56.003Z,12.18
2017-11-20T03:56:23.870Z,10.52
2017-11-20T03:58:51.738Z,9.73
2017-11-20T04:01:19.605Z,11.95
2017-11-20T04:03:47.474Z,12.30
2017-11-20T04:06:15.340Z,13.05
2017-11-20T04:08:43.207Z,11.85
2017-11-20T04:11:11.075Z,13.52
2017-11-20T04:13:38.942Z,11.82
2017-11-20T04:16:06.809Z,13.85
2017-11-20T04:18:34.677Z,9.75
2017-11-20T04:21:02.546Z,11.63
2017-11-20T04:23:30.413Z,8.98
2017-11-20T04:25:58.279Z,6.20
2017-11-20T04:28:26.146Z,7.72
2017-11-20T04:30:54.015Z,15.40
2017-11-20T04:33:21.881Z,9.80
2017-11-20T04:35:49.748Z,11.43
2017-11-20T04:38:17.617Z,16.17
2017-11-20T04:40:45.481Z,14.18
2017-11-20T04:43:13.350Z,16.92
2017-11-20T04:45:41.220Z,12.43
2017-11-20T04:48:09.016Z,10.30
2017-11-20T04:50:37.668Z,12.45
2017-11-20T04:53:05.535Z,9.10
2017-11-20T04:55:33.400Z,19.50
2017-11-20T04:58:01.270Z,13.48
2017-11-20T05:00:29.138Z,13.75
2017-11-20T05:02:56.944Z,6.00
2017-11-20T05:05:25.589Z,15.32
2017-11-20T05:07:53.456Z,11.98
2017-11-20T05:10:21.324Z,10.88
2017-11-20T05:12:49.190Z,8.85
2017-11-20T05:15:17.057Z,13.13
2017-11-20T05:17:44.925Z,19.73
2017-11-20T05:20:12.792Z,12.02
2017-11-20T05:22:40.660Z,11.85
2017-11-20T05:25:08.527Z,15.82
2017-11-20T05:27:36.401Z,16.80
2017-11-20T05:30:04.262Z,12.07
2017-11-20T05:32:32.129Z,12.45
2017-11-20T05:34:59.997Z,13.60
2017-11-20T05:37:27.863Z,12.15
2017-11-20T05:39:55.731Z,13.93
2017-11-20T05:42:23.703Z,16.40
2017-11-20T05:44:51.569Z,16.48
2017-11-20T05:47:19.437Z,13.70
2017-11-20T05:49:47.303Z,17.52
2017-11-20T05:52:15.174Z,14.02
2017-11-20T05:54:43.047Z,16.02
2017-11-20T05:57:10.905Z,14.48
2017-11-20T05:59:38.772Z,19.65
2017-11-20T06:02:06.641Z,12.85
2017-11-20T06:04:34.516Z,16.87
2017-11-20T06:07:02.379Z,14.30
2017-11-20T06:09:30.245Z,14.40
2017-11-20T06:11:58.110Z,17.27
2017-11-20T06:17:00.196Z,15.95
2017-11-20T06:19:28.064Z,14.13
2017-11-20T06:21:55.931Z,14.50
2017-11-20T06:24:29.837Z,10.25
2017-11-20T06:26:57.706Z,18.62
2017-11-20T06:29:25.573Z,14.18
2017-11-20T06:31:53.439Z,12.65
2017-11-20T06:34:21.305Z,13.23
2017-11-20T06:36:49.171Z,19.52
2017-11-20T06:39:17.040Z,19.83
2017-11-20T06:41:44.907Z,17.48
2017-11-20T06:44:12.777Z,20.92
2017-11-20T06:46:40.643Z,20.50
2017-11-20T06:49:08.510Z,15.15
2017-11-20T06:51:36.377Z,23.90
2017-11-20T06:54:04.246Z,23.42
2017-11-20T06:56:32.110Z,24.63
2017-11-20T06:58:59.979Z,22.83
2017-11-20T07:01:27.844Z,22.23
2017-11-20T07:03:55.722Z,23.40
2017-11-20T07:06:23.582Z,36.20
2017-11-20T07:08:51.448Z,24.58
2017-11-20T07:11:19.314Z,17.98
2017-11-20T07:13:47.181Z,20.88
2017-11-20T07:16:15.048Z,22.17
2017-11-20T07:18:42.916Z,29.65
2017-11-20T07:21:10.784Z,28.33
2017-11-20T07:23:38.651Z,26.58
2017-11-20T07:26:18.294Z,24.42
2017-11-20T07:28:58.040Z,28.73
2017-11-20T07:31:29.798Z,26.55
2017-11-20T07:34:09.647Z,24.60
2017-11-20T07:36:49.395Z,29.50
2017-11-20T07:39:33.746Z,26.92
2017-11-20T07:42:01.613Z,31.50
2017-11-20T07:44:29.483Z,25.42
2017-11-20T07:46:57.287Z,25.25
2017-11-20T07:49:25.932Z,34.50
2017-11-20T07:51:53.802Z,32.03
2017-11-20T07:54:21.667Z,27.83
2017-11-20T07:56:49.534Z,30.17
2017-11-20T07:59:17.402Z,25.08
2017-11-20T08:01:45.274Z,30.02
2017-11-20T08:04:13.137Z,30.75
2017-11-20T08:06:41.004Z,27.85
2017-11-20T08:09:08.871Z,27.62
2017-11-20T08:11:36.746Z,23.65
2017-11-20T08:14:04.605Z,27.85
2017-11-20T08:16:32.473Z,28.73
2017-11-20T08:19:00.340Z,27.73
2017-11-20T08:21:28.207Z,36.58
2017-11-20T08:23:56.075Z,32.67
2017-11-20T08:26:23.942Z,32.80
2017-11-20T08:28:51.808Z,37.10
2017-11-20T08:31:19.676Z,28.17
2017-11-20T08:33:47.545Z,29.37
2017-11-20T08:36:15.411Z,30.58
2017-11-20T08:38:43.278Z,33.40
2017-11-20T08:41:11.146Z,29.33
2017-11-20T08:43:39.013Z,29.35
2017-11-20T08:46:06.880Z,30.25
2017-11-20T08:48:34.747Z,36.53
2017-11-20T08:51:02.615Z,35.13
2017-11-20T08:53:30.483Z,33.88
2017-11-20T08:55:58.350Z,33.47
2017-11-20T08:58:26.218Z,32.80
2017-11-20T09:00:54.084Z,34.78
2017-11-20T09:03:22.054Z,35.47
2017-11-20T09:05:49.923Z,33.90
2017-11-20T09:08:17.788Z,27.62
2017-11-20T09:10:45.664Z,35.60
2017-11-20T09:13:13.522Z,33.75
2017-11-20T09:15:41.390Z,33.65
2017-11-20T09:18:09.257Z,28.58
2017-11-20T09:20:37.126Z,27.95
2017-11-20T09:23:04.992Z,33.33
2017-11-20T09:25:32.968Z,29.60
2017-11-20T09:28:00.835Z,27.52
2017-11-20T09:30:28.698Z,30.25
2017-11-20T09:32:56.565Z,29.80
2017-11-20T09:35:24.539Z,23.52
2017-11-20T09:37:52.405Z,34.28
2017-11-20T09:40:20.373Z,24.58
2017-11-20T09:42:48.240Z,25.27
2017-11-20T09:45:16.039Z,33.40
2017-11-20T09:47:44.690Z,27.55
2017-11-20T09:50:12.557Z,30.02
2017-11-20T09:52:40.424Z,28.42
2017-11-20T09:55:08.291Z,28.15
2017-11-20T09:57:36.260Z,32.72
2017-11-20T10:00:04.129Z,26.92
2017-11-20T10:02:31.996Z,29.02
2017-11-20T10:05:00.070Z,29.27
2017-11-20T10:07:27.935Z,32.10
2017-11-20T10:09:55.805Z,26.90
2017-11-20T10:12:23.669Z,28.60
2017-11-20T10:14:51.536Z,32.58
2017-11-20T10:17:19.409Z,35.95
2017-11-20T10:19:47.272Z,34.25
2017-11-20T10:22:15.141Z,29.63
2017-11-20T10:24:43.112Z,33.25
2017-11-20T10:27:10.978Z,31.15
2017-11-20T10:29:38.945Z,29.10
2017-11-20T10:32:06.815Z,29.75
2017-11-20T10:34:34.681Z,31.42
2017-11-20T10:37:02.548Z,31.27
2017-11-20T10:39:30.425Z,28.58
2017-11-20T10:41:58.385Z,29.98
2017-11-20T10:44:26.251Z,25.37
2017-11-20T10:46:54.118Z,23.73
2017-11-20T10:49:21.986Z,32.33
2017-11-20T10:51:49.955Z,25.30
2017-11-20T10:54:17.823Z,22.15
2017-11-20T10:56:45.691Z,23.77
2017-11-20T10:59:13.557Z,32.10
2017-11-20T11:01:41.429Z,25.35
2017-11-20T11:04:09.292Z,25.10
2017-11-20T11:06:37.159Z,20.62
2017-11-20T11:09:05.028Z,22.95
2017-11-20T11:11:32.898Z,31.85
2017-11-20T11:14:00.762Z,22.65
2017-11-20T11:16:28.628Z,24.48
2017-11-20T11:18:56.497Z,17.98
2017-11-20T11:21:24.365Z,21.98
2017-11-20T11:23:52.236Z,17.30
2017-11-20T11:26:21.617Z,21.25
2017-11-20T11:28:48.785Z,20.95
2017-11-20T11:31:16.754Z,22.37
2017-11-20T11:33:44.724Z,24.73
2017-11-20T11:36:16.468Z,18.20
2017-11-20T11:38:41.382Z,23.58
2017-11-20T11:41:09.248Z,26.87
2017-11-20T11:43:37.115Z,22.02
2017-11-20T11:46:04.982Z,19.98
2017-11-20T11:48:32.952Z,17.12
2017-11-20T11:51:00.922Z,21.40
2017-11-20T11:53:28.789Z,19.27
2017-11-20T11:55:56.759Z,24.12
2017-11-20T11:58:24.729Z,18.73
2017-11-20T12:00:52.698Z,13.80
2017-11-20T12:03:20.565Z,18.58
2017-11-20T12:05:48.535Z,19.17
2017-11-20T12:08:16.404Z,14.38
2017-11-20T12:10:44.371Z,18.92
2017-11-20T12:13:12.240Z,18.83
2017-11-20T12:15:40.208Z,19.73
2017-11-20T12:18:08.178Z,18.80
2017-11-20T12:20:36.046Z,18.75
2017-11-20T12:23:03.915Z,14.85
2017-11-20T12:25:31.882Z,15.88
2017-11-20T12:27:59.751Z,15.82
2017-11-20T12:30:27.617Z,17.00
2017-11-20T12:32:55.587Z,11.35
2017-11-20T12:35:23.454Z,16.55
2017-11-20T12:37:51.424Z,17.12
2017-11-20T12:40:19.394Z,19.25
2017-11-20T12:42:47.363Z,11.10
2017-11-20T12:45:15.333Z,14.38
2017-11-20T12:47:43.205Z,12.13
2017-11-20T12:50:11.173Z,10.10
2017-11-20T12:52:39.046Z,15.80
2017-11-20T12:55:07.008Z,12.90
2017-11-20T12:57:34.981Z,14.35
2017-11-20T13:00:02.952Z,12.52
2017-11-20T13:02:30.921Z,12.90
2017-11-20T13:04:58.889Z,14.52
2017-11-20T13:07:26.858Z,9.90
2017-11-20T13:09:54.724Z,17.20
2017-11-20T13:12:22.520Z,11.15
2017-11-20T13:14:51.174Z,16.52
2017-11-20T13:17:19.043Z,15.18
2017-11-20T13:19:46.840Z,16.30
2017-11-20T13:22:15.493Z,11.70
2017-11-20T13:24:43.359Z,9.38
2017-11-20T13:27:11.231Z,12.13
2017-11-20T13:29:39.096Z,17.05
2017-11-20T13:32:07.066Z,15.60
2017-11-20T13:34:34.932Z,11.82
2017-11-20T13:37:02.800Z,10.85
2017-11-20T13:39:30.667Z,18.10
2017-11-20T13:41:58.536Z,13.85
2017-11-20T13:44:26.402Z,11.25
2017-11-20T13:46:54.269Z,16.50
2017-11-20T13:49:22.140Z,18.58
2017-11-20T13:51:50.005Z,16.70
2017-11-20T13:54:18.694Z,10.63
2017-11-20T13:56:46.557Z,11.45
2017-11-20T13:59:14.425Z,19.40
2017-11-20T14:01:42.293Z,15.82
2017-11-20T14:04:10.159Z,16.95
2017-11-20T14:06:42.941Z,11.65
2017-11-20T14:09:10.847Z,19.42
2017-11-20T14:11:39.496Z,19.27
2017-11-20T14:14:07.363Z,14.52
2017-11-20T14:16:35.231Z,13.30
2017-11-20T14:19:03.096Z,16.48
2017-11-20T14:21:30.965Z,28.80
2017-11-20T14:23:58.831Z,27.25
2017-11-20T14:26:26.699Z,20.17
2017-11-20T14:28:54.566Z,15.80
2017-11-20T14:31:22.434Z,15.88
2017-11-20T14:33:50.300Z,16.77
2017-11-20T14:36:18.274Z,20.02
2017-11-20T14:38:46.173Z,16.02
2017-11-20T14:41:14.824Z,14.13
2017-11-20T14:43:42.794Z,15.98
2017-11-20T14:46:10.662Z,13.30
2017-11-20T14:48:40.640Z,13.13
2017-11-20T14:51:17.046Z,15.10
2017-11-20T14:53:47.607Z,12.27
2017-11-20T14:56:16.262Z,17.92
2017-11-20T14:58:44.130Z,13.15
2017-11-20T15:01:12.920Z,20.10
2017-11-20T15:03:40.889Z,16.12
2017-11-20T15:06:08.756Z,23.20
2017-11-20T15:08:36.725Z,17.83
2017-11-20T15:11:04.694Z,19.08
2017-11-20T15:13:32.664Z,19.92
2017-11-20T15:16:00.634Z,18.87
2017-11-20T15:18:28.603Z,24.80
2017-11-20T15:20:56.582Z,18.98
2017-11-20T15:23:24.546Z,22.92
2017-11-20T15:25:52.515Z,21.37
2017-11-20T15:28:20.485Z,24.50
2017-11-20T15:30:48.452Z,20.70
2017-11-20T15:33:16.421Z,21.52
2017-11-20T15:35:44.394Z,25.52
2017-11-20T15:38:12.211Z,26.37
2017-11-20T15:40:40.126Z,29.33
2017-11-20T15:43:07.996Z,21.02
2017-11-20T15:45:35.963Z,26.05
2017-11-20T15:48:03.836Z,27.35
2017-11-20T15:50:31.697Z,19.10
2017-11-20T15:52:59.565Z,26.73
2017-11-20T15:55:27.431Z,22.10
2017-11-20T15:57:55.299Z,18.67
2017-11-20T16:00:23.182Z,25.50
2017-11-20T16:02:51.034Z,27.62
2017-11-20T16:05:18.900Z,24.05
2017-11-20T16:07:46.768Z,25.20
2017-11-20T16:10:14.640Z,23.52
2017-11-20T16:12:42.508Z,26.00
2017-11-20T16:15:10.373Z,31.37
2017-11-20T16:17:38.239Z,31.25
2017-11-20T16:20:06.110Z,25.75
2017-11-20T16:22:33.977Z,23.33
2017-11-20T16:25:01.843Z,26.08
2017-11-20T16:27:29.710Z,28.50
2017-11-20T16:29:57.577Z,24.05
2017-11-20T16:32:25.442Z,25.73
2017-11-20T16:34:53.310Z,29.00
2017-11-20T16:37:21.176Z,31.02
2017-11-20T16:39:49.046Z,26.98
2017-11-20T16:42:16.923Z,35.63
2017-11-20T16:44:44.779Z,30.60
2017-11-20T16:47:12.645Z,27.98
2017-11-20T16:49:40.512Z,26.55
2017-11-20T16:52:08.379Z,31.92
2017-11-20T16:54:36.248Z,35.15
2017-11-20T16:57:15.993Z,28.85
2017-11-20T16:59:43.860Z,33.25
2017-11-20T17:02:33.436Z,29.83
2017-11-20T17:05:01.299Z,30.10
2017-11-20T17:07:29.170Z,29.48
2017-11-20T17:09:57.043Z,32.90
2017-11-20T17:12:24.906Z,31.35
2017-11-20T17:14:52.773Z,36.45
2017-11-20T17:17:20.634Z,33.78
2017-11-20T17:19:48.508Z,29.37
2017-11-20T17:22:16.375Z,36.65
2017-11-20T17:24:44.242Z,28.08
2017-11-20T17:27:12.113Z,28.20
2017-11-20T17:29:39.978Z,30.58
2017-11-20T17:32:07.844Z,39.65
2017-11-20T17:34:35.712Z,32.08
2017-11-20T17:37:03.586Z,28.55
2017-11-20T17:39:31.455Z,33.40
2017-11-20T17:41:59.314Z,38.08
2017-11-20T17:44:27.181Z,33.30
2017-11-20T17:46:55.048Z,31.48
2017-11-20T17:49:22.937Z,30.75
2017-11-20T17:51:50.783Z,30.45
2017-11-20T17:54:18.650Z,27.77
2017-11-20T17:56:46.519Z,25.00
2017-11-20T17:59:14.385Z,30.30
2017-11-20T18:01:42.251Z,27.62
2017-11-20T18:04:10.120Z,33.13
2017-11-20T18:06:37.987Z,25.55
2017-11-20T18:09:05.854Z,28.62
2017-11-20T18:11:33.723Z,29.00
2017-11-20T18:14:01.589Z,25.45
2017-11-20T18:16:29.563Z,30.42
2017-11-20T18:18:57.425Z,32.97
2017-11-20T18:21:25.293Z,29.25
2017-11-20T18:23:53.159Z,34.08
2017-11-20T18:26:21.027Z,33.92
2017-11-20T18:28:48.895Z,33.70
2017-11-20T18:31:16.765Z,26.25
2017-11-20T18:33:44.732Z,38.50
2017-11-20T18:36:12.599Z,34.15
2017-11-20T18:38:40.467Z,32.22
2017-11-20T18:41:08.334Z,38.97
2017-11-20T18:43:36.238Z,34.85
2017-11-20T18:46:04.887Z,28.00
2017-11-20T18:48:32.755Z,26.70
2017-11-20T18:51:00.624Z,32.03
2017-11-20T18:53:28.490Z,36.90
2017-11-20T18:55:56.459Z,40.65
2017-11-20T18:58:24.185Z,35.90
2017-11-20T19:01:04.072Z,37.88
2017-11-20T19:06:46.297Z,39.55
2017-11-20T19:09:14.267Z,27.92
2017-11-20T19:11:42.238Z,30.45
2017-11-20T19:14:10.103Z,27.80
2017-11-20T19:16:37.972Z,25.15
2017-11-20T19:19:05.838Z,30.10
2017-11-20T19:21:33.912Z,24.33
2017-11-20T19:24:01.778Z,29.02
2017-11-20T19:26:29.644Z,24.75
2017-11-20T19:28:57.512Z,35.83
2017-11-20T19:31:25.383Z,28.55
2017-11-20T19:33:53.250Z,26.15
2017-11-20T19:36:21.118Z,25.45
2017-11-20T19:38:48.982Z,27.60
2017-11-20T19:41:16.854Z,33.60
2017-11-20T19:43:44.727Z,29.90
2017-11-20T19:46:12.587Z,26.58
2017-11-20T19:48:40.453Z,31.30
2017-11-20T19:51:08.423Z,25.50
2017-11-20T19:53:36.391Z,28.62
2017-11-20T19:56:04.258Z,24.10
2017-11-20T19:58:32.125Z,26.25
2017-11-20T20:00:59.993Z,28.10
2017-11-20T20:03:27.962Z,28.25
2017-11-20T20:05:55.830Z,23.58
2017-11-20T20:08:23.696Z,25.92
2017-11-20T20:10:51.565Z,22.40
2017-11-20T20:13:19.432Z,22.33
2017-11-20T20:15:59.178Z,23.10
2017-11-20T20:18:27.051Z,25.67
2017-11-20T20:20:54.912Z,20.10
2017-11-20T20:23:22.779Z,20.40
2017-11-20T20:25:50.647Z,19.55
2017-11-20T20:28:18.514Z,21.52
2017-11-20T20:30:46.381Z,19.37
2017-11-20T20:33:14.274Z,18.67
2017-11-20T20:35:42.116Z,16.70
2017-11-20T20:38:09.984Z,15.77
2017-11-20T20:40:37.850Z,21.40
2017-11-20T20:43:05.719Z,14.23
2017-11-20T20:45:33.589Z,16.35
2017-11-20T20:48:01.453Z,15.02
2017-11-20T20:50:29.320Z,18.60
2017-11-20T20:52:57.223Z,14.90
2017-11-20T20:55:25.873Z,16.33
2017-11-20T20:57:53.741Z,14.20
2017-11-20T21:00:21.608Z,11.38
2017-11-20T21:02:49.476Z,12.02
2017-11-20T21:05:17.343Z,14.48
2017-11-20T21:07:45.210Z,14.05
2017-11-20T21:10:18.609Z,15.18
2017-11-20T21:12:46.474Z,13.73
2017-11-20T21:15:14.343Z,13.02
2017-11-20T21:17:42.213Z,13.13
2017-11-20T21:20:10.009Z,14.05
2017-11-20T21:22:38.763Z,16.83
2017-11-20T21:25:06.633Z,10.55
2017-11-20T21:27:34.498Z,15.07
2017-11-20T21:30:02.365Z,12.88
2017-11-20T21:32:30.233Z,11.70
2017-11-20T21:34:58.100Z,11.68
2017-11-20T21:37:25.968Z,12.30
2017-11-20T21:39:53.836Z,12.43
2017-11-20T21:42:21.702Z,12.82
2017-11-20T21:44:49.569Z,13.60
2017-11-20T21:47:17.436Z,14.13
2017-11-20T21:49:45.303Z,13.18
2017-11-20T21:52:13.172Z,14.00
2017-11-20T21:54:41.045Z,10.63
2017-11-20T21:57:08.905Z,9.82
2017-11-20T21:59:36.773Z,17.50
2017-11-20T22:02:04.639Z,13.57
2017-11-20T22:04:32.513Z,15.93
2017-11-20T22:07:00.375Z,10.13
2017-11-20T22:09:28.242Z,11.00
2017-11-20T22:11:56.109Z,11.40
2017-11-20T22:14:23.982Z,9.15
2017-11-20T22:16:51.845Z,8.30
2017-11-20T22:19:19.717Z,10.77
2017-11-20T22:21:47.579Z,7.37
2017-11-20T22:24:15.455Z,9.07
2017-11-20T22:26:43.314Z,7.50
2017-11-20T22:29:11.182Z,8.20
2017-11-20T22:31:39.048Z,75.00
2017-11-20T22:34:06.916Z,6.45
2017-11-20T22:36:34.783Z,5.87
2017-11-20T22:39:02.652Z,9.00
2017-11-20T22:41:30.517Z,6.57
2017-11-20T22:43:58.384Z,6.18
2017-11-20T22:46:26.253Z,6.53
2017-11-20T22:48:54.118Z,6.03
2017-11-20T22:51:21.991Z,6.62
2017-11-20T22:53:49.857Z,7.40
2017-11-20T22:56:17.723Z,4.15
2017-11-20T22:58:45.601Z,6.00
2017-11-20T23:01:13.458Z,6.87
2017-11-20T23:03:41.330Z,4.95
2017-11-20T23:06:09.194Z,4.25
2017-11-20T23:08:37.060Z,4.60
2017-11-20T23:11:04.927Z,3.83
2017-11-20T23:13:32.904Z,4.22
2017-11-20T23:16:00.871Z,3.78
2017-11-20T23:18:28.731Z,5.47
2017-11-20T23:20:56.599Z,3.95
2017-11-20T23:23:24.470Z,3.62
2017-11-20T23:25:52.335Z,3.58
2017-11-20T23:28:20.918Z,3.10
2017-11-20T23:30:48.785Z,4.00
2017-11-20T23:33:16.652Z,4.00
2017-11-20T23:35:44.520Z,2.65
2017-11-20T23:38:12.387Z,2.83
2017-11-20T23:40:40.257Z,4.62
2017-11-20T23:43:08.122Z,3.47
2017-11-20T23:45:35.988Z,4.53
2017-11-20T23:48:03.863Z,4.78
2017-11-20T23:50:31.724Z,3.90
2017-11-20T23:52:59.591Z,4.90
2017-11-20T23:55:27.412Z,3.40
2017-11-20T23:57:55.235Z,2.97
